sensor_id;sensor_type;location;lat;lon;timestamp;pressure;altitude;pressure_sealevel;temperature;humidity
8573;BME280;4324;42.012;24.872;2023-04-26T00:00:47;97978.47;;;13.38;67.02
8573;BME280;4324;42.012;24.872;2023-04-26T00:03:14;97956.41;;;13.30;67.30
8573;BME280;4324;42.012;24.872;2023-04-26T00:05:41;97919.22;;;13.11;66.85
8573;BME280;4324;42.012;24.872;2023-04-26T00:08:08;97977.22;;;13.47;66.46
8573;BME280;4324;42.012;24.872;2023-04-26T00:10:35;97959.69;;;13.32;66.72
8573;BME280;4324;42.012;24.872;2023-04-26T00:13:02;97964.59;;;13.36;67.02
8573;BME280;4324;42.012;24.872;2023-04-26T00:15:29;97958.25;;;13.30;67.17
8573;BME280;4324;42.012;24.872;2023-04-26T00:17:57;97970.09;;;13.34;67.07
8573;BME280;4324;42.012;24.872;2023-04-26T00:20:25;97939.44;;;13.12;66.61
8573;BME280;4324;42.012;24.872;2023-04-26T00:22:52;97970.69;;;13.23;66.52
8573;BME280;4324;42.012;24.872;2023-04-26T00:25:19;97940.31;;;12.99;67.19
8573;BME280;4324;42.012;24.872;2023-04-26T00:27:45;97961.34;;;13.14;67.21
8573;BME280;4324;42.012;24.872;2023-04-26T00:30:13;97953.13;;;13.15;67.05
8573;BME280;4324;42.012;24.872;2023-04-26T00:32:40;97954.97;;;13.21;66.77
8573;BME280;4324;42.012;24.872;2023-04-26T00:35:09;97920.44;;;13.08;67.29
8573;BME280;4324;42.012;24.872;2023-04-26T00:37:36;97943.31;;;13.29;67.31
8573;BME280;4324;42.012;24.872;2023-04-26T00:40:03;97910.22;;;13.12;67.42
8573;BME280;4324;42.012;24.872;2023-04-26T00:42:31;97900.44;;;13.05;66.75
8573;BME280;4324;42.012;24.872;2023-04-26T00:44:58;97885.91;;;13.01;66.13
8573;BME280;4324;42.012;24.872;2023-04-26T00:47:26;97922.47;;;13.26;66.66
8573;BME280;4324;42.012;24.872;2023-04-26T00:49:55;97922.47;;;13.26;66.99
8573;BME280;4324;42.012;24.872;2023-04-26T00:52:23;97920.44;;;13.28;67.14
8573;BME280;4324;42.012;24.872;2023-04-26T00:54:52;97917.56;;;13.29;66.44
8573;BME280;4324;42.012;24.872;2023-04-26T00:57:19;97899.56;;;13.18;65.93
8573;BME280;4324;42.012;24.872;2023-04-26T00:59:47;97915.91;;;13.22;66.23
8573;BME280;4324;42.012;24.872;2023-04-26T01:02:13;97905.28;;;13.22;65.94
8573;BME280;4324;42.012;24.872;2023-04-26T01:04:41;97909.78;;;13.21;65.76
8573;BME280;4324;42.012;24.872;2023-04-26T01:07:10;97905.69;;;13.19;65.52
8573;BME280;4324;42.012;24.872;2023-04-26T01:09:39;97897.13;;;13.17;65.29
8573;BME280;4324;42.012;24.872;2023-04-26T01:12:07;97897.53;;;13.14;65.35
8573;BME280;4324;42.012;24.872;2023-04-26T01:14:34;97885.72;;;13.10;65.45
8573;BME280;4324;42.012;24.872;2023-04-26T01:17:02;97868.75;;;12.97;65.89
8573;BME280;4324;42.012;24.872;2023-04-26T01:19:30;97869.78;;;12.96;65.67
8573;BME280;4324;42.012;24.872;2023-04-26T01:21:57;97900.78;;;13.16;65.26
8573;BME280;4324;42.012;24.872;2023-04-26T01:24:26;97899.16;;;13.15;65.32
8573;BME280;4324;42.012;24.872;2023-04-26T01:26:52;97881.63;;;13.00;65.93
8573;BME280;4324;42.012;24.872;2023-04-26T01:29:20;97813.50;;;12.61;65.59
8573;BME280;4324;42.012;24.872;2023-04-26T01:31:48;97836.34;;;12.69;65.73
8573;BME280;4324;42.012;24.872;2023-04-26T01:34:15;97905.31;;;13.08;65.34
8573;BME280;4324;42.012;24.872;2023-04-26T01:36:42;97896.94;;;13.05;65.18
8573;BME280;4324;42.012;24.872;2023-04-26T01:39:09;97896.13;;;13.04;65.10
8573;BME280;4324;42.012;24.872;2023-04-26T01:41:38;97894.31;;;12.98;64.98
8573;BME280;4324;42.012;24.872;2023-04-26T01:44:05;97889.41;;;12.95;65.46
8573;BME280;4324;42.012;24.872;2023-04-26T01:46:32;97888.78;;;12.93;64.95
8573;BME280;4324;42.012;24.872;2023-04-26T01:48:59;97877.56;;;12.91;65.10
8573;BME280;4324;42.012;24.872;2023-04-26T01:51:26;97865.53;;;12.89;65.15
8573;BME280;4324;42.012;24.872;2023-04-26T01:53:53;97854.72;;;12.77;65.54
8573;BME280;4324;42.012;24.872;2023-04-26T01:56:22;97869.41;;;12.86;65.29
8573;BME280;4324;42.012;24.872;2023-04-26T01:58:50;97870.25;;;12.80;64.59
8573;BME280;4324;42.012;24.872;2023-04-26T02:01:17;97852.88;;;12.71;64.56
8573;BME280;4324;42.012;24.872;2023-04-26T02:03:44;97849.84;;;12.60;64.65
8573;BME280;4324;42.012;24.872;2023-04-26T02:06:11;97843.31;;;12.56;65.01
8573;BME280;4324;42.012;24.872;2023-04-26T02:08:38;97866.16;;;12.71;64.63
8573;BME280;4324;42.012;24.872;2023-04-26T02:11:04;97828.44;;;12.42;64.41
8573;BME280;4324;42.012;24.872;2023-04-26T02:13:31;97853.94;;;12.56;64.26
8573;BME280;4324;42.012;24.872;2023-04-26T02:16:00;97870.66;;;12.64;64.66
8573;BME280;4324;42.012;24.872;2023-04-26T02:18:26;97879.03;;;12.74;65.16
8573;BME280;4324;42.012;24.872;2023-04-26T02:20:54;97872.09;;;12.73;65.47
8573;BME280;4324;42.012;24.872;2023-04-26T02:23:21;97871.88;;;12.81;65.37
8573;BME280;4324;42.012;24.872;2023-04-26T02:25:48;97849.44;;;12.64;65.05
8573;BME280;4324;42.012;24.872;2023-04-26T02:28:15;97888.22;;;12.84;65.45
8573;BME280;4324;42.012;24.872;2023-04-26T02:30:42;97891.28;;;12.88;65.71
8573;BME280;4324;42.012;24.872;2023-04-26T02:33:11;97892.72;;;12.84;65.96
8573;BME280;4324;42.012;24.872;2023-04-26T02:35:38;97901.06;;;12.94;65.71
8573;BME280;4324;42.012;24.872;2023-04-26T02:38:05;97879.03;;;12.87;65.47
8573;BME280;4324;42.012;24.872;2023-04-26T02:40:32;97886.13;;;12.93;65.58
8573;BME280;4324;42.012;24.872;2023-04-26T02:42:59;97874.31;;;12.82;65.61
8573;BME280;4324;42.012;24.872;2023-04-26T02:45:26;97875.16;;;12.83;65.82
8573;BME280;4324;42.012;24.872;2023-04-26T02:47:53;97890.25;;;12.89;65.55
8573;BME280;4324;42.012;24.872;2023-04-26T02:50:22;97905.34;;;12.95;65.41
8573;BME280;4324;42.012;24.872;2023-04-26T02:52:49;97901.25;;;12.99;65.90
8573;BME280;4324;42.012;24.872;2023-04-26T02:55:16;97897.16;;;12.97;65.83
8573;BME280;4324;42.012;24.872;2023-04-26T02:57:42;97909.00;;;13.07;66.14
8573;BME280;4324;42.012;24.872;2023-04-26T03:00:10;97872.84;;;12.93;65.60
8573;BME280;4324;42.012;24.872;2023-04-26T03:02:38;97904.47;;;13.15;65.63
8573;BME280;4324;42.012;24.872;2023-04-26T03:05:05;97866.72;;;12.99;65.88
8573;BME280;4324;42.012;24.872;2023-04-26T03:07:35;97869.56;;;13.04;65.95
8573;BME280;4324;42.012;24.872;2023-04-26T03:10:02;97880.56;;;13.15;65.92
8573;BME280;4324;42.012;24.872;2023-04-26T03:12:29;97895.06;;;13.25;65.78
8573;BME280;4324;42.012;24.872;2023-04-26T03:14:56;97899.59;;;13.25;65.34
8573;BME280;4324;42.012;24.872;2023-04-26T03:17:23;97863.00;;;13.07;65.34
8573;BME280;4324;42.012;24.872;2023-04-26T03:19:50;97890.56;;;13.26;65.45
8573;BME280;4324;42.012;24.872;2023-04-26T03:22:17;97886.88;;;13.27;65.37
8573;BME280;4324;42.012;24.872;2023-04-26T03:24:46;97872.19;;;13.24;65.23
8573;BME280;4324;42.012;24.872;2023-04-26T03:27:13;97877.91;;;13.28;64.74
8573;BME280;4324;42.012;24.872;2023-04-26T03:29:40;97879.75;;;13.27;64.92
8573;BME280;4324;42.012;24.872;2023-04-26T03:32:07;97885.25;;;13.26;64.55
8573;BME280;4324;42.012;24.872;2023-04-26T03:34:34;97865.44;;;13.08;65.09
8573;BME280;4324;42.012;24.872;2023-04-26T03:37:01;97870.59;;;13.03;64.97
8573;BME280;4324;42.012;24.872;2023-04-26T03:39:28;97904.25;;;13.23;64.70
8573;BME280;4324;42.012;24.872;2023-04-26T03:41:56;97886.91;;;13.14;64.84
8573;BME280;4324;42.012;24.872;2023-04-26T03:44:23;97911.25;;;13.24;65.23
8573;BME280;4324;42.012;24.872;2023-04-26T03:46:49;97911.84;;;13.26;65.25
8573;BME280;4324;42.012;24.872;2023-04-26T03:49:16;97913.47;;;13.27;65.16
8573;BME280;4324;42.012;24.872;2023-04-26T03:51:43;97919.63;;;13.27;64.67
8573;BME280;4324;42.012;24.872;2023-04-26T03:54:10;97916.34;;;13.25;64.55
8573;BME280;4324;42.012;24.872;2023-04-26T03:56:37;97923.50;;;13.25;64.79
8573;BME280;4324;42.012;24.872;2023-04-26T03:59:06;97923.50;;;13.25;64.70
8573;BME280;4324;42.012;24.872;2023-04-26T04:01:34;97923.28;;;13.26;65.06
8573;BME280;4324;42.012;24.872;2023-04-26T04:04:01;97925.31;;;13.31;64.74
8573;BME280;4324;42.012;24.872;2023-04-26T04:06:28;97921.44;;;13.34;64.69
8573;BME280;4324;42.012;24.872;2023-04-26T04:08:55;97928.97;;;13.37;64.39
8573;BME280;4324;42.012;24.872;2023-04-26T04:11:22;97925.28;;;13.38;65.24
8573;BME280;4324;42.012;24.872;2023-04-26T04:13:49;97928.56;;;13.40;66.40
8573;BME280;4324;42.012;24.872;2023-04-26T04:16:17;97916.31;;;13.39;66.62
8573;BME280;4324;42.012;24.872;2023-04-26T04:18:44;97915.25;;;13.46;67.04
8573;BME280;4324;42.012;24.872;2023-04-26T04:21:10;97913.81;;;13.50;68.13
8573;BME280;4324;42.012;24.872;2023-04-26T04:23:37;97911.94;;;13.58;68.96
8573;BME280;4324;42.012;24.872;2023-04-26T04:26:04;97914.53;;;13.64;69.57
8573;BME280;4324;42.012;24.872;2023-04-26T04:28:31;97915.78;;;13.68;70.70
8573;BME280;4324;42.012;24.872;2023-04-26T04:30:58;97904.91;;;13.70;70.63
8573;BME280;4324;42.012;24.872;2023-04-26T04:33:27;97918.16;;;13.83;70.79
8573;BME280;4324;42.012;24.872;2023-04-26T04:35:54;97909.09;;;13.91;71.40
8573;BME280;4324;42.012;24.872;2023-04-26T04:38:21;97898.50;;;13.84;71.96
8573;BME280;4324;42.012;24.872;2023-04-26T04:40:48;97905.75;;;14.02;72.04
8573;BME280;4324;42.012;24.872;2023-04-26T04:43:15;97886.78;;;13.92;72.52
8573;BME280;4324;42.012;24.872;2023-04-26T04:45:42;97871.91;;;13.77;72.58
8573;BME280;4324;42.012;24.872;2023-04-26T04:48:09;97902.25;;;14.01;72.83
8573;BME280;4324;42.012;24.872;2023-04-26T04:50:38;97903.47;;;14.06;73.44
8573;BME280;4324;42.012;24.872;2023-04-26T04:53:04;97898.75;;;14.08;73.82
8573;BME280;4324;42.012;24.872;2023-04-26T04:55:31;97908.88;;;14.24;74.12
8573;BME280;4324;42.012;24.872;2023-04-26T04:57:58;97802.78;;;13.71;73.83
8573;BME280;4324;42.012;24.872;2023-04-26T05:00:26;97911.75;;;14.47;74.05
8573;BME280;4324;42.012;24.872;2023-04-26T05:02:53;97902.06;;;14.60;74.24
8573;BME280;4324;42.012;24.872;2023-04-26T05:05:20;97902.75;;;14.73;74.17
8573;BME280;4324;42.012;24.872;2023-04-26T05:07:49;97907.59;;;14.83;74.32
8573;BME280;4324;42.012;24.872;2023-04-26T05:10:16;97898.56;;;14.84;74.29
8573;BME280;4324;42.012;24.872;2023-04-26T05:12:43;97911.09;;;15.02;74.49
8573;BME280;4324;42.012;24.872;2023-04-26T05:15:11;97905.66;;;15.09;74.56
8573;BME280;4324;42.012;24.872;2023-04-26T05:17:37;97916.13;;;15.10;74.75
8573;BME280;4324;42.012;24.872;2023-04-26T05:20:05;97904.34;;;15.18;74.82
8573;BME280;4324;42.012;24.872;2023-04-26T05:22:34;97908.56;;;15.25;74.65
8573;BME280;4324;42.012;24.872;2023-04-26T05:25:03;97893.16;;;15.28;74.93
8573;BME280;4324;42.012;24.872;2023-04-26T05:27:30;97895.16;;;15.32;74.57
8573;BME280;4324;42.012;24.872;2023-04-26T05:29:59;97852.19;;;15.22;74.47
8573;BME280;4324;42.012;24.872;2023-04-26T05:32:26;97897.06;;;15.62;74.20
8573;BME280;4324;42.012;24.872;2023-04-26T05:34:53;97900.63;;;15.74;74.12
8573;BME280;4324;42.012;24.872;2023-04-26T05:37:20;97901.69;;;15.85;73.67
8573;BME280;4324;42.012;24.872;2023-04-26T05:39:47;97898.34;;;15.89;73.24
8573;BME280;4324;42.012;24.872;2023-04-26T05:42:15;97896.13;;;15.86;72.80
8573;BME280;4324;42.012;24.872;2023-04-26T05:44:42;97905.47;;;15.95;72.97
8573;BME280;4324;42.012;24.872;2023-04-26T05:47:09;97905.72;;;16.06;73.03
8573;BME280;4324;42.012;24.872;2023-04-26T05:49:36;97903.28;;;16.16;73.22
8573;BME280;4324;42.012;24.872;2023-04-26T05:52:03;97891.47;;;16.24;73.11
8573;BME280;4324;42.012;24.872;2023-04-26T05:54:30;97902.41;;;16.34;73.07
8573;BME280;4324;42.012;24.872;2023-04-26T05:56:57;97902.75;;;16.37;72.96
8573;BME280;4324;42.012;24.872;2023-04-26T05:59:27;97898.81;;;16.28;73.17
8573;BME280;4324;42.012;24.872;2023-04-26T06:01:57;97899.13;;;16.20;72.90
8573;BME280;4324;42.012;24.872;2023-04-26T06:04:24;97906.31;;;16.08;72.81
8573;BME280;4324;42.012;24.872;2023-04-26T06:06:50;97903.50;;;16.03;72.83
8573;BME280;4324;42.012;24.872;2023-04-26T06:09:17;97908.25;;;16.01;73.03
8573;BME280;4324;42.012;24.872;2023-04-26T06:11:44;97900.25;;;16.01;73.14
8573;BME280;4324;42.012;24.872;2023-04-26T06:14:11;97911.53;;;16.03;73.13
8573;BME280;4324;42.012;24.872;2023-04-26T06:16:39;97906.63;;;16.00;73.05
8573;BME280;4324;42.012;24.872;2023-04-26T06:19:06;97912.50;;;15.90;73.25
8573;BME280;4324;42.012;24.872;2023-04-26T06:21:33;97912.59;;;15.83;73.47
8573;BME280;4324;42.012;24.872;2023-04-26T06:24:00;97904.13;;;15.86;73.70
8573;BME280;4324;42.012;24.872;2023-04-26T06:26:27;97909.28;;;16.00;74.08
8573;BME280;4324;42.012;24.872;2023-04-26T06:28:53;97907.13;;;16.20;74.39
8573;BME280;4324;42.012;24.872;2023-04-26T06:31:20;97905.91;;;16.46;74.04
8573;BME280;4324;42.012;24.872;2023-04-26T06:33:48;97909.41;;;16.58;73.56
8573;BME280;4324;42.012;24.872;2023-04-26T06:36:15;97908.81;;;16.56;73.79
8573;BME280;4324;42.012;24.872;2023-04-26T06:38:42;97913.81;;;16.64;73.55
8573;BME280;4324;42.012;24.872;2023-04-26T06:41:09;97915.50;;;16.77;73.64
8573;BME280;4324;42.012;24.872;2023-04-26T06:43:36;97906.78;;;16.93;73.10
8573;BME280;4324;42.012;24.872;2023-04-26T06:46:03;97912.81;;;17.01;72.49
8573;BME280;4324;42.012;24.872;2023-04-26T06:48:30;97909.44;;;17.17;72.26
8573;BME280;4324;42.012;24.872;2023-04-26T06:50:58;97904.41;;;17.32;71.51
8573;BME280;4324;42.012;24.872;2023-04-26T06:53:25;97903.91;;;17.47;71.01
8573;BME280;4324;42.012;24.872;2023-04-26T06:55:51;97905.59;;;17.65;70.57
8573;BME280;4324;42.012;24.872;2023-04-26T06:58:22;97909.63;;;17.79;69.68
8573;BME280;4324;42.012;24.872;2023-04-26T07:00:48;97904.28;;;17.79;68.20
8573;BME280;4324;42.012;24.872;2023-04-26T07:03:15;97907.19;;;17.78;68.22
8573;BME280;4324;42.012;24.872;2023-04-26T07:05:42;97912.88;;;17.81;67.97
8573;BME280;4324;42.012;24.872;2023-04-26T07:08:10;97922.91;;;17.74;66.05
8573;BME280;4324;42.012;24.872;2023-04-26T07:10:38;97919.13;;;17.58;65.61
8573;BME280;4324;42.012;24.872;2023-04-26T07:13:05;97918.78;;;17.55;65.67
8573;BME280;4324;42.012;24.872;2023-04-26T07:15:32;97920.66;;;17.54;65.66
8573;BME280;4324;42.012;24.872;2023-04-26T07:18:00;97916.22;;;17.48;65.47
8573;BME280;4324;42.012;24.872;2023-04-26T07:20:27;97916.94;;;17.44;65.46
8573;BME280;4324;42.012;24.872;2023-04-26T07:22:54;97920.19;;;17.46;65.53
8573;BME280;4324;42.012;24.872;2023-04-26T07:25:22;97917.47;;;17.57;65.85
8573;BME280;4324;42.012;24.872;2023-04-26T07:27:49;97917.91;;;17.78;65.36
8573;BME280;4324;42.012;24.872;2023-04-26T07:30:20;97922.66;;;17.87;64.81
8573;BME280;4324;42.012;24.872;2023-04-26T07:32:46;97900.50;;;17.92;64.84
8573;BME280;4324;42.012;24.872;2023-04-26T07:35:13;97904.19;;;18.03;64.52
8573;BME280;4324;42.012;24.872;2023-04-26T07:37:42;97906.47;;;18.11;64.13
8573;BME280;4324;42.012;24.872;2023-04-26T07:40:10;97907.13;;;18.18;64.29
8573;BME280;4324;42.012;24.872;2023-04-26T07:42:39;97908.91;;;18.29;64.31
8573;BME280;4324;42.012;24.872;2023-04-26T07:45:07;97906.31;;;18.34;64.23
8573;BME280;4324;42.012;24.872;2023-04-26T07:47:34;97905.66;;;18.27;63.79
8573;BME280;4324;42.012;24.872;2023-04-26T07:50:01;97916.22;;;18.17;64.47
8573;BME280;4324;42.012;24.872;2023-04-26T07:52:28;97922.06;;;18.14;64.39
8573;BME280;4324;42.012;24.872;2023-04-26T07:54:54;97920.91;;;18.10;64.43
8573;BME280;4324;42.012;24.872;2023-04-26T07:57:21;97926.03;;;18.11;64.34
8573;BME280;4324;42.012;24.872;2023-04-26T07:59:50;97923.81;;;18.08;64.48
8573;BME280;4324;42.012;24.872;2023-04-26T08:02:17;97926.09;;;18.00;64.37
8573;BME280;4324;42.012;24.872;2023-04-26T08:04:46;97914.69;;;17.93;64.74
8573;BME280;4324;42.012;24.872;2023-04-26T08:07:14;97919.25;;;17.92;64.38
8573;BME280;4324;42.012;24.872;2023-04-26T08:09:41;97929.44;;;17.78;64.47
8573;BME280;4324;42.012;24.872;2023-04-26T08:12:08;97927.81;;;17.65;64.22
8573;BME280;4324;42.012;24.872;2023-04-26T08:14:35;97933.31;;;17.59;64.11
8573;BME280;4324;42.012;24.872;2023-04-26T08:17:05;97924.97;;;17.44;63.38
8573;BME280;4324;42.012;24.872;2023-04-26T08:19:32;97932.88;;;17.38;63.14
8573;BME280;4324;42.012;24.872;2023-04-26T08:21:59;97930.19;;;17.38;63.45
8573;BME280;4324;42.012;24.872;2023-04-26T08:24:25;97918.47;;;17.39;62.68
8573;BME280;4324;42.012;24.872;2023-04-26T08:26:53;97917.63;;;17.51;62.77
8573;BME280;4324;42.012;24.872;2023-04-26T08:29:21;97916.19;;;17.60;62.27
8573;BME280;4324;42.012;24.872;2023-04-26T08:31:48;97907.09;;;17.61;62.37
8573;BME280;4324;42.012;24.872;2023-04-26T08:34:17;97917.53;;;17.74;61.89
8573;BME280;4324;42.012;24.872;2023-04-26T08:36:44;97914.75;;;17.81;61.43
8573;BME280;4324;42.012;24.872;2023-04-26T08:39:11;97915.44;;;17.88;61.31
8573;BME280;4324;42.012;24.872;2023-04-26T08:41:42;97908.28;;;17.94;60.88
8573;BME280;4324;42.012;24.872;2023-04-26T08:44:09;97906.47;;;18.11;61.28
8573;BME280;4324;42.012;24.872;2023-04-26T08:46:39;97894.22;;;18.15;60.91
8573;BME280;4324;42.012;24.872;2023-04-26T08:49:15;97880.50;;;18.28;60.50
8573;BME280;4324;42.012;24.872;2023-04-26T08:51:46;97892.03;;;18.46;59.88
8573;BME280;4324;42.012;24.872;2023-04-26T08:54:15;97888.13;;;18.53;59.41
8573;BME280;4324;42.012;24.872;2023-04-26T08:56:43;97884.50;;;18.76;59.43
8573;BME280;4324;42.012;24.872;2023-04-26T08:59:10;97882.03;;;18.92;58.99
8573;BME280;4324;42.012;24.872;2023-04-26T09:01:38;97878.50;;;19.08;58.25
8573;BME280;4324;42.012;24.872;2023-04-26T09:04:05;97868.09;;;18.95;57.29
8573;BME280;4324;42.012;24.872;2023-04-26T09:06:33;97880.47;;;18.96;57.21
8573;BME280;4324;42.012;24.872;2023-04-26T09:09:02;97880.81;;;18.82;55.58
8573;BME280;4324;42.012;24.872;2023-04-26T09:11:53;97878.56;;;18.74;55.98
8573;BME280;4324;42.012;24.872;2023-04-26T09:14:20;97877.06;;;18.83;56.33
8573;BME280;4324;42.012;24.872;2023-04-26T09:16:47;97867.50;;;18.88;56.42
8573;BME280;4324;42.012;24.872;2023-04-26T09:19:14;97853.50;;;18.85;55.85
8573;BME280;4324;42.012;24.872;2023-04-26T09:21:42;97877.38;;;19.04;56.00
8573;BME280;4324;42.012;24.872;2023-04-26T09:24:11;97872.69;;;19.16;55.59
8573;BME280;4324;42.012;24.872;2023-04-26T09:26:39;97871.13;;;19.20;55.77
8573;BME280;4324;42.012;24.872;2023-04-26T09:29:14;97859.91;;;19.23;55.66
8573;BME280;4324;42.012;24.872;2023-04-26T09:31:43;97881.38;;;19.45;55.66
8573;BME280;4324;42.012;24.872;2023-04-26T09:34:12;97883.38;;;19.55;55.34
8573;BME280;4324;42.012;24.872;2023-04-26T09:36:46;97883.41;;;19.60;55.77
8573;BME280;4324;42.012;24.872;2023-04-26T09:39:28;97887.19;;;19.81;55.16
8573;BME280;4324;42.012;24.872;2023-04-26T09:41:57;97880.59;;;19.94;54.90
8573;BME280;4324;42.012;24.872;2023-04-26T09:44:24;97884.75;;;20.06;54.09
8573;BME280;4324;42.012;24.872;2023-04-26T09:47:02;97886.66;;;20.11;53.94
8573;BME280;4324;42.012;24.872;2023-04-26T09:49:32;97877.28;;;20.14;53.74
8573;BME280;4324;42.012;24.872;2023-04-26T09:52:00;97853.31;;;20.07;53.69
8573;BME280;4324;42.012;24.872;2023-04-26T09:54:40;97873.88;;;20.23;52.48
8573;BME280;4324;42.012;24.872;2023-04-26T09:57:07;97879.09;;;20.08;52.81
8573;BME280;4324;42.012;24.872;2023-04-26T09:59:41;97877.25;;;19.81;52.77
8573;BME280;4324;42.012;24.872;2023-04-26T10:02:13;97883.69;;;19.58;52.76
8573;BME280;4324;42.012;24.872;2023-04-26T10:04:45;97866.88;;;19.24;52.66
8573;BME280;4324;42.012;24.872;2023-04-26T10:07:13;97872.63;;;19.11;52.99
8573;BME280;4324;42.012;24.872;2023-04-26T10:09:42;97883.22;;;19.01;53.45
8573;BME280;4324;42.012;24.872;2023-04-26T10:12:10;97885.84;;;18.96;53.56
8573;BME280;4324;42.012;24.872;2023-04-26T10:14:37;97875.63;;;18.76;53.67
8573;BME280;4324;42.012;24.872;2023-04-26T10:17:05;97885.69;;;18.69;53.60
8573;BME280;4324;42.012;24.872;2023-04-26T10:19:33;97898.94;;;18.58;53.78
8573;BME280;4324;42.012;24.872;2023-04-26T10:22:04;97879.69;;;18.28;54.13
8573;BME280;4324;42.012;24.872;2023-04-26T10:24:33;97898.50;;;17.99;54.06
8573;BME280;4324;42.012;24.872;2023-04-26T10:27:01;97903.56;;;17.72;54.75
8573;BME280;4324;42.012;24.872;2023-04-26T10:32:31;97918.53;;;17.56;57.10
8573;BME280;4324;42.012;24.872;2023-04-26T10:35:09;97922.81;;;17.57;58.55
8573;BME280;4324;42.012;24.872;2023-04-26T10:37:36;97918.78;;;17.55;59.31
8573;BME280;4324;42.012;24.872;2023-04-26T10:40:23;97923.91;;;17.45;60.64
8573;BME280;4324;42.012;24.872;2023-04-26T10:43:26;97928.47;;;17.32;61.67
8573;BME280;4324;42.012;24.872;2023-04-26T10:45:53;97924.44;;;17.18;61.45
8573;BME280;4324;42.012;24.872;2023-04-26T10:48:27;97914.09;;;16.98;62.13
8573;BME280;4324;42.012;24.872;2023-04-26T10:51:07;97924.22;;;16.84;63.00
8573;BME280;4324;42.012;24.872;2023-04-26T10:53:57;97900.81;;;16.68;62.89
8573;BME280;4324;42.012;24.872;2023-04-26T10:56:50;97912.22;;;16.75;63.00
8573;BME280;4324;42.012;24.872;2023-04-26T10:59:20;97911.56;;;16.80;62.68
8573;BME280;4324;42.012;24.872;2023-04-26T11:01:47;97900.03;;;16.79;62.15
8573;BME280;4324;42.012;24.872;2023-04-26T11:04:14;97830.06;;;16.35;61.62
8573;BME280;4324;42.012;24.872;2023-04-26T11:06:49;97897.72;;;16.95;61.29
8573;BME280;4324;42.012;24.872;2023-04-26T11:09:47;97894.06;;;17.12;60.89
8573;BME280;4324;42.012;24.872;2023-04-26T11:12:14;97887.88;;;17.35;60.22
8573;BME280;4324;42.012;24.872;2023-04-26T11:14:44;97874.22;;;17.49;59.83
8573;BME280;4324;42.012;24.872;2023-04-26T11:17:11;97866.59;;;17.69;59.87
8573;BME280;4324;42.012;24.872;2023-04-26T11:19:40;97886.56;;;18.07;59.59
8573;BME280;4324;42.012;24.872;2023-04-26T11:22:07;97875.84;;;18.24;58.61
8573;BME280;4324;42.012;24.872;2023-04-26T11:24:34;97874.50;;;18.38;57.79
8573;BME280;4324;42.012;24.872;2023-04-26T11:27:07;97854.28;;;18.30;57.17
8573;BME280;4324;42.012;24.872;2023-04-26T11:29:34;97883.28;;;18.50;56.60
8573;BME280;4324;42.012;24.872;2023-04-26T11:32:03;97881.47;;;18.56;55.88
8573;BME280;4324;42.012;24.872;2023-04-26T11:34:30;97810.03;;;18.11;55.55
8573;BME280;4324;42.012;24.872;2023-04-26T11:36:58;97877.34;;;18.48;55.71
8573;BME280;4324;42.012;24.872;2023-04-26T11:39:25;97875.81;;;18.35;55.15
8573;BME280;4324;42.012;24.872;2023-04-26T11:41:55;97879.53;;;18.18;54.94
8573;BME280;4324;42.012;24.872;2023-04-26T11:44:30;97874.13;;;18.01;54.06
8573;BME280;4324;42.012;24.872;2023-04-26T11:46:57;97868.44;;;17.80;54.03
8573;BME280;4324;42.012;24.872;2023-04-26T11:49:26;97880.53;;;17.71;54.19
8573;BME280;4324;42.012;24.872;2023-04-26T11:51:53;97875.66;;;17.68;54.61
8573;BME280;4324;42.012;24.872;2023-04-26T11:54:26;97854.81;;;17.41;54.53
8573;BME280;4324;42.012;24.872;2023-04-26T11:56:54;97872.00;;;17.46;54.85
8573;BME280;4324;42.012;24.872;2023-04-26T11:59:24;97875.38;;;17.53;54.90
8573;BME280;4324;42.012;24.872;2023-04-26T12:01:51;97880.59;;;17.59;54.15
8573;BME280;4324;42.012;24.872;2023-04-26T12:04:18;97866.66;;;17.46;53.53
8573;BME280;4324;42.012;24.872;2023-04-26T12:06:46;97892.00;;;17.55;54.13
8573;BME280;4324;42.012;24.872;2023-04-26T12:09:14;97868.31;;;17.47;53.67
8573;BME280;4324;42.012;24.872;2023-04-26T12:11:47;97880.25;;;17.56;54.31
8573;BME280;4324;42.012;24.872;2023-04-26T12:14:15;97882.78;;;17.62;54.46
8573;BME280;4324;42.012;24.872;2023-04-26T12:16:42;97817.97;;;17.32;54.15
8573;BME280;4324;42.012;24.872;2023-04-26T12:19:09;97879.63;;;17.77;53.88
8573;BME280;4324;42.012;24.872;2023-04-26T12:21:41;97867.28;;;17.76;54.24
8573;BME280;4324;42.012;24.872;2023-04-26T12:24:23;97866.66;;;17.86;54.21
8573;BME280;4324;42.012;24.872;2023-04-26T12:26:51;97885.25;;;18.09;54.71
8573;BME280;4324;42.012;24.872;2023-04-26T12:29:18;97880.19;;;18.25;54.29
8573;BME280;4324;42.012;24.872;2023-04-26T12:31:45;97892.50;;;18.43;53.96
8573;BME280;4324;42.012;24.872;2023-04-26T12:34:12;97876.09;;;18.56;53.40
8573;BME280;4324;42.012;24.872;2023-04-26T12:36:40;97877.41;;;18.70;53.76
8573;BME280;4324;42.012;24.872;2023-04-26T12:39:08;97862.94;;;18.88;53.91
8573;BME280;4324;42.012;24.872;2023-04-26T12:41:37;97873.19;;;19.13;53.62
8573;BME280;4324;42.012;24.872;2023-04-26T12:44:04;97869.03;;;19.22;53.21
8573;BME280;4324;42.012;24.872;2023-04-26T12:46:31;97870.94;;;19.27;52.83
8573;BME280;4324;42.012;24.872;2023-04-26T12:48:58;97865.22;;;19.18;52.42
8573;BME280;4324;42.012;24.872;2023-04-26T12:51:25;97867.28;;;19.11;52.39
8573;BME280;4324;42.012;24.872;2023-04-26T12:53:52;97875.81;;;19.08;51.77
8573;BME280;4324;42.012;24.872;2023-04-26T12:56:19;97853.50;;;18.85;52.03
8573;BME280;4324;42.012;24.872;2023-04-26T12:58:48;97870.50;;;18.91;52.34
8573;BME280;4324;42.012;24.872;2023-04-26T13:01:15;97838.75;;;18.66;52.14
8573;BME280;4324;42.012;24.872;2023-04-26T13:03:42;97864.56;;;18.72;52.28
8573;BME280;4324;42.012;24.872;2023-04-26T13:06:09;97866.09;;;18.68;52.53
8573;BME280;4324;42.012;24.872;2023-04-26T13:08:36;97793.97;;;18.11;52.45
8573;BME280;4324;42.012;24.872;2023-04-26T13:11:03;97870.69;;;18.51;52.63
8573;BME280;4324;42.012;24.872;2023-04-26T13:13:30;97876.03;;;18.34;53.30
8573;BME280;4324;42.012;24.872;2023-04-26T13:15:58;97877.19;;;18.21;53.79
8573;BME280;4324;42.012;24.872;2023-04-26T13:18:25;97881.28;;;18.12;53.82